createdAt,value
2018-02-23T00:02:04.156Z,24.40
2018-02-23T00:04:32.543Z,25.65
2018-02-23T00:07:00.127Z,27.35
2018-02-23T00:09:27.712Z,25.45
2018-02-23T00:11:56.082Z,31.87
2018-02-23T00:14:24.430Z,27.00
2018-02-23T00:16:52.034Z,25.83
2018-02-23T00:19:19.619Z,27.10
2018-02-23T00:21:47.226Z,27.67
2018-02-23T00:24:14.812Z,27.65
2018-02-23T00:26:42.435Z,27.95
2018-02-23T00:29:10.010Z,28.20
2018-02-23T00:31:38.359Z,26.90
2018-02-23T00:34:05.963Z,27.98
2018-02-23T00:36:33.537Z,28.27
2018-02-23T00:39:01.147Z,29.15
2018-02-23T00:41:28.772Z,26.17
2018-02-23T00:43:57.151Z,26.62
2018-02-23T00:46:24.735Z,24.10
2018-02-23T00:48:52.347Z,27.45
2018-02-23T00:51:19.957Z,28.23
2018-02-23T00:53:47.563Z,24.60
2018-02-23T00:56:15.186Z,26.17
2018-02-23T00:58:42.768Z,26.55
2018-02-23T01:01:10.350Z,22.73
2018-02-23T01:03:38.719Z,23.95
2018-02-23T01:06:07.094Z,23.25
2018-02-23T01:08:34.707Z,26.70
2018-02-23T01:11:02.290Z,24.67
2018-02-23T01:13:29.896Z,25.83
2018-02-23T01:15:57.559Z,23.62
2018-02-23T01:18:25.907Z,23.83
2018-02-23T01:20:53.514Z,28.58
2018-02-23T01:23:21.095Z,26.15
2018-02-23T01:25:48.706Z,27.27
2018-02-23T01:28:16.317Z,25.42
2018-02-23T01:30:44.667Z,27.15
2018-02-23T01:33:13.036Z,25.88
2018-02-23T01:35:41.417Z,34.40
2018-02-23T01:38:09.058Z,27.65
2018-02-23T01:40:37.406Z,28.62
2018-02-23T01:43:04.991Z,28.75
2018-02-23T01:45:32.599Z,30.62
2018-02-23T01:48:00.947Z,28.87
2018-02-23T01:50:28.550Z,27.87
2018-02-23T01:52:56.128Z,23.55
2018-02-23T01:55:23.740Z,26.40
2018-02-23T01:57:51.319Z,25.95
2018-02-23T02:00:18.899Z,24.85
2018-02-23T02:02:47.271Z,25.23
2018-02-23T02:05:15.619Z,28.42
2018-02-23T02:07:43.986Z,27.13
2018-02-23T02:10:12.332Z,23.95
2018-02-23T02:12:39.944Z,25.05
2018-02-23T02:15:07.531Z,26.50
2018-02-23T02:17:35.151Z,24.65
2018-02-23T02:20:02.739Z,23.87
2018-02-23T02:22:31.086Z,21.90
2018-02-23T02:24:58.695Z,20.83
2018-02-23T02:27:26.274Z,22.73
2018-02-23T02:29:53.883Z,22.60
2018-02-23T02:32:21.466Z,24.65
2018-02-23T02:34:49.051Z,19.52
2018-02-23T02:37:16.689Z,20.60
2018-02-23T02:39:45.039Z,23.10
2018-02-23T02:42:13.410Z,21.12
2018-02-23T02:44:41.770Z,20.92
2018-02-23T02:47:10.147Z,22.52
2018-02-23T02:49:37.744Z,19.65
2018-02-23T02:52:05.355Z,18.30
2018-02-23T02:54:32.967Z,19.17
2018-02-23T02:57:01.323Z,21.40
2018-02-23T02:59:28.940Z,21.20
2018-02-23T03:01:56.531Z,18.67
2018-02-23T03:04:24.928Z,16.52
2018-02-23T03:06:52.515Z,19.40
2018-02-23T03:09:20.102Z,16.58
2018-02-23T03:11:47.706Z,16.67
2018-02-23T03:14:15.291Z,18.48
2018-02-23T03:16:42.895Z,17.27
2018-02-23T03:19:10.479Z,16.08
2018-02-23T03:21:38.087Z,18.45
2018-02-23T03:24:05.672Z,15.90
2018-02-23T03:26:33.255Z,14.82
2018-02-23T03:29:00.863Z,18.23
2018-02-23T03:31:28.487Z,15.38
2018-02-23T03:33:56.071Z,17.52
2018-02-23T03:36:23.651Z,14.32
2018-02-23T03:38:51.258Z,18.95
2018-02-23T03:41:18.838Z,20.83
2018-02-23T03:43:46.463Z,18.92
2018-02-23T03:46:14.042Z,17.25
2018-02-23T03:48:41.624Z,16.05
2018-02-23T03:51:09.998Z,14.60
2018-02-23T03:53:37.582Z,15.48
2018-02-23T03:56:05.194Z,18.90
2018-02-23T03:58:32.783Z,15.60
2018-02-23T04:01:00.391Z,13.77
2018-02-23T04:03:27.970Z,18.92
2018-02-23T04:05:55.583Z,16.70
2018-02-23T04:08:23.199Z,15.30
2018-02-23T04:10:51.547Z,15.65
2018-02-23T04:13:19.122Z,15.95
2018-02-23T04:15:46.726Z,19.50
2018-02-23T04:18:14.330Z,16.20
2018-02-23T04:20:41.907Z,15.10
2018-02-23T04:23:09.548Z,15.05
2018-02-23T04:25:37.130Z,18.90
2018-02-23T04:28:05.480Z,18.48
2018-02-23T04:30:33.098Z,19.48
2018-02-23T04:33:00.696Z,17.95
2018-02-23T04:35:29.096Z,17.50
2018-02-23T04:37:56.995Z,18.80
2018-02-23T04:40:24.584Z,16.62
2018-02-23T04:42:52.219Z,17.20
2018-02-23T04:45:19.810Z,19.75
2018-02-23T04:47:47.391Z,17.65
2018-02-23T04:50:15.759Z,19.77
2018-02-23T04:52:44.130Z,15.93
2018-02-23T04:55:12.479Z,18.00
2018-02-23T04:57:40.915Z,15.80
2018-02-23T05:00:08.500Z,18.42
2018-02-23T05:02:36.847Z,17.45
2018-02-23T05:05:04.452Z,19.37
2018-02-23T05:07:32.055Z,16.67
2018-02-23T05:10:00.435Z,17.62
2018-02-23T05:12:28.020Z,19.75
2018-02-23T05:14:55.628Z,22.02
2018-02-23T05:17:23.235Z,18.73
2018-02-23T05:19:50.822Z,21.92
2018-02-23T05:22:18.433Z,20.75
2018-02-23T05:24:46.026Z,19.92
2018-02-23T05:27:13.640Z,24.70
2018-02-23T05:29:41.986Z,22.42
2018-02-23T05:32:09.568Z,23.20
2018-02-23T05:34:37.174Z,20.33
2018-02-23T05:37:04.799Z,21.58
2018-02-23T05:39:32.402Z,19.52
2018-02-23T05:41:59.987Z,22.25
2018-02-23T05:44:27.567Z,23.08
2018-02-23T05:46:55.175Z,22.10
2018-02-23T05:49:22.754Z,22.08
2018-02-23T05:51:50.375Z,21.37
2018-02-23T05:54:17.960Z,24.20
2018-02-23T05:56:46.302Z,20.60
2018-02-23T05:59:13.930Z,29.05
2018-02-23T06:01:41.506Z,20.95
2018-02-23T06:04:09.093Z,20.55
2018-02-23T06:06:36.700Z,24.67
2018-02-23T06:09:04.325Z,21.65
2018-02-23T06:11:31.907Z,22.00
2018-02-23T06:14:00.254Z,20.92
2018-02-23T06:16:27.899Z,21.02
2018-02-23T06:18:58.449Z,22.30
2018-02-23T06:21:26.035Z,25.62
2018-02-23T06:23:53.647Z,21.27
2018-02-23T06:26:21.234Z,24.08
2018-02-23T06:28:49.619Z,20.60
2018-02-23T06:31:17.207Z,19.77
2018-02-23T06:33:44.823Z,20.48
2018-02-23T06:36:13.162Z,24.70
2018-02-23T06:38:40.791Z,22.30
2018-02-23T06:41:08.366Z,20.50
2018-02-23T06:43:36.706Z,23.83
2018-02-23T06:46:04.319Z,21.85
2018-02-23T06:48:31.899Z,21.17
2018-02-23T06:50:59.507Z,19.58
2018-02-23T06:53:27.096Z,21.45
2018-02-23T06:55:54.719Z,21.50
2018-02-23T06:58:22.298Z,21.40
2018-02-23T07:00:49.903Z,21.85
2018-02-23T07:03:17.526Z,18.35
2018-02-23T07:05:45.108Z,23.40
2018-02-23T07:08:12.711Z,23.73
2018-02-23T07:10:40.314Z,21.17
2018-02-23T07:13:07.899Z,20.27
2018-02-23T07:15:35.506Z,18.33
2018-02-23T07:18:03.082Z,20.77
2018-02-23T07:20:31.486Z,21.80
2018-02-23T07:22:59.076Z,19.65
2018-02-23T07:25:26.699Z,23.05
2018-02-23T07:27:55.094Z,21.25
2018-02-23T07:30:22.675Z,22.87
2018-02-23T07:32:50.310Z,18.45
2018-02-23T07:35:17.886Z,22.02
2018-02-23T07:37:45.502Z,19.55
2018-02-23T07:40:13.106Z,19.17
2018-02-23T07:42:40.686Z,21.17
2018-02-23T07:45:08.294Z,21.10
2018-02-23T07:47:35.886Z,20.35
2018-02-23T07:50:03.499Z,22.30
2018-02-23T07:52:31.086Z,21.70
2018-02-23T07:54:58.673Z,20.92
2018-02-23T07:57:26.290Z,18.58
2018-02-23T07:59:53.876Z,24.45
2018-02-23T08:02:21.487Z,21.87
2018-02-23T08:04:49.091Z,18.90
2018-02-23T08:07:17.459Z,19.95
2018-02-23T08:09:45.819Z,18.98
2018-02-23T08:12:14.200Z,23.60
2018-02-23T08:14:42.559Z,21.40
2018-02-23T08:17:10.167Z,19.50
2018-02-23T08:19:37.779Z,22.02
2018-02-23T08:22:05.475Z,20.88
2018-02-23T08:24:33.874Z,24.20
2018-02-23T08:27:01.535Z,22.55
2018-02-23T08:29:29.118Z,22.15
2018-02-23T08:31:56.730Z,23.30
2018-02-23T08:34:24.314Z,24.90
2018-02-23T08:36:51.924Z,27.70
2018-02-23T08:39:19.503Z,23.05
2018-02-23T08:41:47.091Z,24.40
2018-02-23T08:44:14.695Z,21.85
2018-02-23T08:46:42.269Z,22.67
2018-02-23T08:49:10.638Z,26.52
2018-02-23T08:51:38.990Z,21.40
2018-02-23T08:54:07.365Z,24.75
2018-02-23T08:56:35.720Z,24.58
2018-02-23T08:59:04.074Z,23.10
2018-02-23T09:01:31.702Z,26.48
2018-02-23T09:03:59.306Z,26.00
2018-02-23T09:06:27.152Z,23.90
2018-02-23T09:08:54.839Z,27.55
2018-02-23T09:11:22.423Z,24.02
2018-02-23T09:13:50.778Z,25.48
2018-02-23T09:16:19.159Z,26.10
2018-02-23T09:18:46.774Z,27.50
2018-02-23T09:21:14.378Z,26.95
2018-02-23T09:23:41.966Z,24.75
2018-02-23T09:26:09.580Z,24.50
2018-02-23T09:28:37.196Z,26.50
2018-02-23T09:31:04.833Z,25.35
2018-02-23T09:33:45.192Z,26.80
2018-02-23T09:36:12.819Z,29.12
2018-02-23T09:38:41.249Z,23.95
2018-02-23T09:41:08.839Z,29.35
2018-02-23T09:43:36.469Z,28.02
2018-02-23T09:46:04.083Z,28.00
2018-02-23T09:48:31.712Z,25.25
2018-02-23T09:50:59.331Z,27.40
2018-02-23T09:53:26.942Z,27.60
2018-02-23T09:55:54.555Z,26.58
2018-02-23T09:58:22.139Z,27.23
2018-02-23T10:00:49.751Z,25.00
2018-02-23T10:03:17.334Z,25.12
2018-02-23T10:05:45.706Z,29.45
2018-02-23T10:08:14.059Z,25.98
2018-02-23T10:10:41.707Z,27.73
2018-02-23T10:13:09.296Z,24.63
2018-02-23T10:15:36.879Z,27.75
2018-02-23T10:18:04.491Z,25.45
2018-02-23T10:20:32.074Z,28.27
2018-02-23T10:22:59.660Z,30.10
2018-02-23T10:25:27.291Z,27.02
2018-02-23T10:27:55.643Z,27.80
2018-02-23T10:30:23.227Z,31.98
2018-02-23T10:32:50.889Z,26.00
2018-02-23T10:35:18.454Z,30.02
2018-02-23T10:37:46.091Z,29.10
2018-02-23T10:40:13.692Z,32.05
2018-02-23T10:42:42.047Z,26.90
2018-02-23T10:45:10.437Z,30.42
2018-02-23T10:47:38.019Z,25.92
2018-02-23T10:50:05.633Z,25.75
2018-02-23T10:52:33.220Z,27.73
2018-02-23T10:55:00.830Z,31.85
2018-02-23T10:57:28.422Z,24.45
2018-02-23T10:59:56.032Z,31.25
2018-02-23T11:02:23.624Z,28.80
2018-02-23T11:04:52.082Z,28.05
2018-02-23T11:07:19.702Z,27.58
2018-02-23T11:09:47.502Z,28.27
2018-02-23T11:12:15.875Z,30.80
2018-02-23T11:14:44.239Z,27.25
2018-02-23T11:17:11.869Z,26.75
2018-02-23T11:19:40.254Z,25.65
2018-02-23T11:22:07.839Z,29.83
2018-02-23T11:24:35.446Z,27.75
2018-02-23T11:27:03.054Z,29.58
2018-02-23T11:29:30.696Z,28.83
2018-02-23T11:31:58.311Z,28.98
2018-02-23T11:34:25.923Z,30.05
2018-02-23T11:36:54.302Z,27.27
2018-02-23T11:39:21.882Z,32.58
2018-02-23T11:41:49.495Z,26.62
2018-02-23T11:44:17.107Z,27.02
2018-02-23T11:46:44.694Z,29.27
2018-02-23T11:49:12.280Z,29.55
2018-02-23T11:51:39.891Z,29.45
2018-02-23T11:54:07.471Z,28.58
2018-02-23T11:56:35.088Z,29.63
2018-02-23T11:59:02.671Z,28.15
2018-02-23T12:01:30.262Z,28.98
2018-02-23T12:03:57.871Z,29.45
2018-02-23T12:06:25.458Z,25.17
2018-02-23T12:08:53.091Z,28.60
2018-02-23T12:11:20.674Z,26.83
2018-02-23T12:13:48.295Z,27.50
2018-02-23T12:16:15.878Z,26.10
2018-02-23T12:18:43.468Z,31.37
2018-02-23T12:21:11.857Z,29.75
2018-02-23T12:23:39.442Z,28.92
2018-02-23T12:26:07.078Z,28.05
2018-02-23T12:28:34.682Z,28.92
2018-02-23T12:31:02.267Z,26.95
2018-02-23T12:33:29.850Z,25.00
2018-02-23T12:35:57.500Z,23.95
2018-02-23T12:38:25.851Z,26.85
2018-02-23T12:40:53.443Z,27.33
2018-02-23T12:43:21.047Z,25.88
2018-02-23T12:45:49.403Z,26.58
2018-02-23T12:48:17.015Z,27.62
2018-02-23T12:50:44.603Z,27.87
2018-02-23T12:53:12.971Z,28.27
2018-02-23T12:55:41.322Z,25.92
2018-02-23T12:58:08.935Z,28.20
2018-02-23T13:00:36.522Z,27.73
2018-02-23T13:03:04.918Z,28.33
2018-02-23T13:05:32.498Z,25.02
2018-02-23T13:08:00.083Z,24.90
2018-02-23T13:10:28.621Z,25.83
2018-02-23T13:12:56.211Z,29.35
2018-02-23T13:15:23.827Z,25.37
2018-02-23T13:17:51.415Z,26.45
2018-02-23T13:20:19.043Z,28.60
2018-02-23T13:22:47.399Z,25.00
2018-02-23T13:25:15.756Z,23.92
2018-02-23T13:27:49.099Z,26.12
2018-02-23T13:30:16.690Z,24.98
2018-02-23T13:32:45.070Z,23.27
2018-02-23T13:35:12.654Z,25.23
2018-02-23T13:37:40.287Z,25.92
2018-02-23T13:40:07.883Z,26.70
2018-02-23T13:42:36.239Z,27.83
2018-02-23T13:45:03.851Z,28.12
2018-02-23T13:47:31.436Z,27.02
2018-02-23T13:49:59.060Z,27.67
2018-02-23T13:52:28.266Z,24.80
2018-02-23T13:54:55.882Z,32.63
2018-02-23T13:57:23.474Z,27.50
2018-02-23T13:59:51.831Z,26.48
2018-02-23T14:02:19.472Z,28.08
2018-02-23T14:04:47.117Z,28.23
2018-02-23T14:07:20.503Z,23.58
2018-02-23T14:09:48.879Z,27.80
2018-02-23T14:12:17.262Z,25.65
2018-02-23T14:14:44.855Z,28.23
2018-02-23T14:17:13.279Z,25.85
2018-02-23T14:19:40.868Z,28.23
2018-02-23T14:22:08.523Z,27.35
2018-02-23T14:24:36.139Z,27.37
2018-02-23T14:27:03.771Z,26.40
2018-02-23T14:29:31.365Z,23.08
2018-02-23T14:31:58.971Z,26.48
2018-02-23T14:34:26.600Z,26.62
2018-02-23T14:36:54.191Z,25.98
2018-02-23T14:39:21.775Z,27.27
2018-02-23T14:41:49.407Z,24.92
2018-02-23T14:44:17.760Z,27.17
2018-02-23T14:46:45.383Z,28.80
2018-02-23T14:49:20.818Z,28.05
2018-02-23T14:51:48.427Z,28.45
2018-02-23T14:54:16.034Z,27.27
2018-02-23T14:56:44.386Z,26.02
2018-02-23T14:59:11.990Z,23.92
2018-02-23T15:01:39.611Z,26.77
2018-02-23T15:04:07.218Z,29.00
2018-02-23T15:06:34.814Z,29.33
2018-02-23T15:09:02.505Z,29.75
2018-02-23T15:11:30.119Z,23.98
2018-02-23T15:13:57.711Z,26.70
2018-02-23T15:16:25.332Z,25.48
2018-02-23T15:18:52.919Z,26.80
2018-02-23T15:21:21.295Z,24.83
2018-02-23T15:23:49.653Z,24.75
2018-02-23T15:26:18.062Z,26.42
2018-02-23T15:28:45.647Z,31.65
2018-02-23T15:31:25.235Z,28.48
2018-02-23T15:33:52.843Z,25.35
2018-02-23T15:36:20.434Z,26.83
2018-02-23T15:38:48.927Z,25.83
2018-02-23T15:41:16.547Z,30.35
2018-02-23T15:43:44.126Z,24.98
2018-02-23T15:46:11.738Z,28.40
2018-02-23T15:51:49.574Z,28.95
2018-02-23T15:54:17.927Z,29.98
2018-02-23T15:56:45.555Z,27.60
2018-02-23T15:59:13.143Z,29.87
2018-02-23T16:01:40.734Z,26.77
2018-02-23T16:04:08.343Z,28.23
2018-02-23T16:06:35.932Z,30.20
2018-02-23T16:09:03.571Z,29.70
2018-02-23T16:11:31.159Z,25.20
2018-02-23T16:13:59.539Z,29.10
2018-02-23T16:16:27.119Z,27.85
2018-02-23T16:18:54.786Z,27.55
2018-02-23T16:21:22.376Z,27.33
2018-02-23T16:23:49.959Z,27.17
2018-02-23T16:26:17.566Z,26.50
2018-02-23T16:28:45.156Z,30.02
2018-02-23T16:31:12.766Z,30.98
2018-02-23T16:33:40.351Z,27.65
2018-02-23T16:36:07.963Z,27.95
2018-02-23T16:38:35.594Z,27.70
2018-02-23T16:41:03.180Z,31.02
2018-02-23T16:43:30.797Z,26.95
2018-02-23T16:45:58.383Z,27.30
2018-02-23T16:48:26.000Z,28.17
2018-02-23T16:50:53.607Z,26.73
2018-02-23T16:53:21.191Z,27.80
2018-02-23T16:55:48.806Z,29.20
2018-02-23T16:58:16.412Z,29.55
2018-02-23T17:00:44.024Z,31.58
2018-02-23T17:03:11.611Z,25.85
2018-02-23T17:05:39.219Z,29.55
2018-02-23T17:08:06.998Z,30.35
2018-02-23T17:10:34.635Z,27.58
2018-02-23T17:13:02.215Z,26.85
2018-02-23T17:15:29.798Z,27.25
2018-02-23T17:17:57.596Z,29.63
2018-02-23T17:20:25.182Z,29.20
2018-02-23T17:22:53.535Z,31.83
2018-02-23T17:25:21.917Z,27.70
2018-02-23T17:27:49.507Z,33.53
2018-02-23T17:30:17.095Z,34.95
2018-02-23T17:32:45.471Z,30.37
2018-02-23T17:35:13.055Z,32.63
2018-02-23T17:37:40.643Z,31.17
2018-02-23T17:40:09.019Z,31.67
2018-02-23T17:42:37.366Z,32.40
2018-02-23T17:45:05.723Z,29.52
2018-02-23T17:47:33.335Z,32.72
2018-02-23T17:50:00.922Z,34.70
2018-02-23T17:52:28.860Z,34.78
2018-02-23T17:54:56.459Z,35.08
2018-02-23T17:57:24.055Z,31.40
2018-02-23T17:59:51.672Z,32.00
2018-02-23T18:02:19.307Z,31.37
2018-02-23T18:04:46.924Z,33.20
2018-02-23T18:07:15.273Z,35.47
2018-02-23T18:09:45.210Z,35.65
2018-02-23T18:12:12.814Z,35.80
2018-02-23T18:14:40.425Z,33.80
2018-02-23T18:17:08.118Z,29.58
2018-02-23T18:19:36.471Z,35.58
2018-02-23T18:22:04.119Z,34.55
2018-02-23T18:24:31.712Z,36.45
2018-02-23T18:26:59.426Z,34.20
2018-02-23T18:29:27.861Z,34.58
2018-02-23T18:31:55.454Z,38.15
2018-02-23T18:34:23.126Z,33.35
2018-02-23T18:36:50.715Z,34.92
2018-02-23T18:39:18.338Z,36.10
2018-02-23T18:41:45.930Z,33.85
2018-02-23T18:44:14.357Z,39.63
2018-02-23T18:46:41.991Z,31.48
2018-02-23T18:49:09.596Z,33.58
2018-02-23T18:51:37.259Z,35.13
2018-02-23T18:54:04.855Z,34.15
2018-02-23T18:56:33.366Z,32.42
2018-02-23T18:59:00.960Z,34.85
2018-02-23T19:01:28.558Z,34.08
2018-02-23T19:03:56.170Z,35.30
2018-02-23T19:06:23.756Z,35.58
2018-02-23T19:08:51.494Z,36.42
2018-02-23T19:11:23.725Z,32.90
2018-02-23T19:13:52.122Z,32.90
2018-02-23T19:16:19.874Z,31.95
2018-02-23T19:18:47.947Z,35.72
2018-02-23T19:21:15.554Z,32.08
2018-02-23T19:23:43.176Z,32.05
2018-02-23T19:26:11.093Z,32.50
2018-02-23T19:28:38.771Z,37.13
2018-02-23T19:31:06.467Z,31.95
2018-02-23T19:33:34.116Z,31.67
2018-02-23T19:36:01.739Z,33.28
2018-02-23T19:38:30.507Z,30.75
2018-02-23T19:40:58.122Z,33.92
2018-02-23T19:43:25.735Z,34.17
2018-02-23T19:45:53.320Z,30.17
2018-02-23T19:51:02.931Z,33.63
2018-02-23T19:53:30.547Z,31.27
2018-02-23T19:55:58.206Z,30.83
2018-02-23T19:58:25.800Z,32.58
2018-02-23T20:00:53.382Z,36.03
2018-02-23T20:03:21.007Z,32.90
2018-02-23T20:05:48.648Z,33.13
2018-02-23T20:08:16.281Z,33.17
2018-02-23T20:10:44.058Z,33.50
2018-02-23T20:13:11.680Z,31.52
2018-02-23T20:15:39.272Z,29.48
2018-02-23T20:18:06.881Z,33.10
2018-02-23T20:20:35.232Z,34.65
2018-02-23T20:23:02.884Z,37.50
2018-02-23T20:25:30.510Z,34.95
2018-02-23T20:27:58.115Z,30.88
2018-02-23T20:30:25.723Z,33.28
2018-02-23T20:32:53.311Z,38.65
2018-02-23T20:35:20.902Z,35.50
2018-02-23T20:37:48.563Z,29.42
2018-02-23T20:40:16.154Z,32.30
2018-02-23T20:42:43.740Z,33.00
2018-02-23T20:45:11.545Z,33.08
2018-02-23T20:47:39.225Z,36.22
2018-02-23T20:50:06.876Z,34.13
2018-02-23T20:52:34.574Z,35.45
2018-02-23T20:55:02.168Z,36.22
2018-02-23T20:57:29.894Z,34.42
2018-02-23T20:59:57.530Z,33.45
2018-02-23T21:02:25.123Z,34.92
2018-02-23T21:04:52.720Z,35.70
2018-02-23T21:07:20.450Z,34.45
2018-02-23T21:09:48.872Z,33.13
2018-02-23T21:12:16.534Z,34.83
2018-02-23T21:14:44.153Z,35.50
2018-02-23T21:17:11.791Z,36.40
2018-02-23T21:19:39.607Z,33.90
2018-02-23T21:22:07.964Z,30.52
2018-02-23T21:24:36.367Z,35.80
2018-02-23T21:27:03.959Z,33.40
2018-02-23T21:29:31.543Z,35.72
2018-02-23T21:31:59.163Z,37.67
2018-02-23T21:34:27.531Z,35.92
2018-02-23T21:36:55.902Z,34.63
2018-02-23T21:39:24.255Z,40.05
2018-02-23T21:41:53.427Z,36.70
2018-02-23T21:44:21.031Z,38.85
2018-02-23T21:46:48.634Z,35.72
2018-02-23T21:49:17.023Z,39.28
2018-02-23T21:51:44.607Z,35.00
2018-02-23T21:54:12.193Z,35.17
2018-02-23T21:56:40.602Z,36.70
2018-02-23T21:59:08.186Z,36.00
2018-02-23T22:01:35.795Z,35.60
2018-02-23T22:04:03.378Z,36.97
2018-02-23T22:06:31.014Z,38.72
2018-02-23T22:08:58.631Z,35.42
2018-02-23T22:11:26.215Z,40.97
2018-02-23T22:13:53.827Z,37.97
2018-02-23T22:16:21.416Z,37.67
2018-02-23T22:18:49.806Z,33.35
2018-02-23T22:21:17.431Z,35.60
2018-02-23T22:23:45.779Z,39.38
2018-02-23T22:26:13.366Z,37.28
2018-02-23T22:28:40.975Z,37.30
2018-02-23T22:31:08.595Z,36.50
2018-02-23T22:33:36.175Z,33.58
2018-02-23T22:36:04.531Z,39.05
2018-02-23T22:38:32.139Z,39.25
2018-02-23T22:40:59.718Z,32.58
2018-02-23T22:43:27.304Z,35.53
2018-02-23T22:45:54.915Z,35.35
2018-02-23T22:48:22.494Z,34.75
2018-02-23T22:50:50.115Z,36.75
2018-02-23T22:53:18.463Z,34.78
2018-02-23T22:55:46.051Z,36.03
2018-02-23T22:58:13.666Z,33.50
2018-02-23T23:00:42.014Z,37.63
2018-02-23T23:03:09.622Z,34.95
2018-02-23T23:05:37.207Z,38.35
2018-02-23T23:08:04.824Z,33.78
2018-02-23T23:10:32.418Z,34.65
2018-02-23T23:13:00.006Z,39.47
2018-02-23T23:15:27.613Z,38.20
2018-02-23T23:17:55.959Z,35.80
2018-02-23T23:20:23.573Z,36.70
2018-02-23T23:22:51.159Z,36.00
2018-02-23T23:25:19.539Z,38.13
2018-02-23T23:27:47.911Z,35.50
2018-02-23T23:30:15.496Z,38.70
2018-02-23T23:32:43.115Z,35.50
2018-02-23T23:35:10.700Z,35.00
2018-02-23T23:37:38.283Z,32.97
2018-02-23T23:40:06.655Z,35.75
2018-02-23T23:42:34.238Z,37.47
2018-02-23T23:45:01.864Z,39.08
2018-02-23T23:47:29.447Z,35.33
2018-02-23T23:49:57.022Z,33.35
2018-02-23T23:52:25.415Z,35.72
2018-02-23T23:54:53.011Z,34.45
2018-02-23T23:57:20.599Z,33.30
2018-02-23T23:59:48.199Z,37.10
